sensor_id;sensor_type;location;lat;lon;timestamp;pressure;altitude;pressure_sealevel;temperature;humidity
56558;BME280;43358;50.356;12.456;2022-08-30T00:00:39;96034;;;18.3;77.2
56558;BME280;43358;50.356;12.456;2022-08-30T00:01:41;96033;;;18.3;77.3
56558;BME280;43358;50.356;12.456;2022-08-30T00:02:43;96032;;;18.3;77.4
56558;BME280;43358;50.356;12.456;2022-08-30T00:03:45;96034;;;18.3;77.2
56558;BME280;43358;50.356;12.456;2022-08-30T00:04:47;96033;;;18.3;77
56558;BME280;43358;50.356;12.456;2022-08-30T00:05:49;96033;;;18.3;76.8
56558;BME280;43358;50.356;12.456;2022-08-30T00:06:51;96033;;;18.3;76.7
56558;BME280;43358;50.356;12.456;2022-08-30T00:07:53;96033;;;18.3;76.8
56558;BME280;43358;50.356;12.456;2022-08-30T00:08:55;96032;;;18.3;77
56558;BME280;43358;50.356;12.456;2022-08-30T00:09:57;96032;;;18.3;76.8
56558;BME280;43358;50.356;12.456;2022-08-30T00:10:59;96034;;;18.3;76.8
56558;BME280;43358;50.356;12.456;2022-08-30T00:12:01;96034;;;18.3;76.7
56558;BME280;43358;50.356;12.456;2022-08-30T00:13:03;96030;;;18.3;76.8
56558;BME280;43358;50.356;12.456;2022-08-30T00:14:05;96027;;;18.3;76.7
56558;BME280;43358;50.356;12.456;2022-08-30T00:15:07;96025;;;18.3;76.8
56558;BME280;43358;50.356;12.456;2022-08-30T00:16:09;96024;;;18.3;77
56558;BME280;43358;50.356;12.456;2022-08-30T00:17:11;96024;;;18.3;76.8
56558;BME280;43358;50.356;12.456;2022-08-30T00:18:15;96023;;;18.3;76.8
56558;BME280;43358;50.356;12.456;2022-08-30T00:19:17;96024;;;18.3;77
56558;BME280;43358;50.356;12.456;2022-08-30T00:20:20;96024;;;18.3;77.1
56558;BME280;43358;50.356;12.456;2022-08-30T00:21:22;96027;;;18.3;76.7
56558;BME280;43358;50.356;12.456;2022-08-30T00:22:25;96032;;;18.3;76.7
56558;BME280;43358;50.356;12.456;2022-08-30T00:23:27;96029;;;18.3;77
56558;BME280;43358;50.356;12.456;2022-08-30T00:24:29;96032;;;18.3;76.7
56558;BME280;43358;50.356;12.456;2022-08-30T00:25:31;96031;;;18.3;76.5
56558;BME280;43358;50.356;12.456;2022-08-30T00:26:33;96031;;;18.3;76.8
56558;BME280;43358;50.356;12.456;2022-08-30T00:27:35;96032;;;18.3;76.8
56558;BME280;43358;50.356;12.456;2022-08-30T00:28:37;96032;;;18.3;77
56558;BME280;43358;50.356;12.456;2022-08-30T00:29:39;96031;;;18.3;76.9
56558;BME280;43358;50.356;12.456;2022-08-30T00:30:42;96031;;;18.3;77.1
56558;BME280;43358;50.356;12.456;2022-08-30T00:31:43;96030;;;18.3;77
56558;BME280;43358;50.356;12.456;2022-08-30T00:32:46;96033;;;18.3;76.9
56558;BME280;43358;50.356;12.456;2022-08-30T00:33:47;96028;;;18.3;76.8
56558;BME280;43358;50.356;12.456;2022-08-30T00:34:49;96028;;;18.3;76.8
56558;BME280;43358;50.356;12.456;2022-08-30T00:35:51;96025;;;18.3;76.6
56558;BME280;43358;50.356;12.456;2022-08-30T00:36:53;96025;;;18.3;76.6
56558;BME280;43358;50.356;12.456;2022-08-30T00:37:55;96023;;;18.3;76.7
56558;BME280;43358;50.356;12.456;2022-08-30T00:38:57;96020;;;18.2;76.5
56558;BME280;43358;50.356;12.456;2022-08-30T00:39:59;96022;;;18.3;76.8
56558;BME280;43358;50.356;12.456;2022-08-30T00:41:05;96020;;;18.3;76.8
56558;BME280;43358;50.356;12.456;2022-08-30T00:42:03;96022;;;18.3;76.8
56558;BME280;43358;50.356;12.456;2022-08-30T00:43:06;96022;;;18.2;76.7
56558;BME280;43358;50.356;12.456;2022-08-30T00:44:07;96023;;;18.2;76.4
56558;BME280;43358;50.356;12.456;2022-08-30T00:45:10;96021;;;18.2;76.3
56558;BME280;43358;50.356;12.456;2022-08-30T00:46:11;96018;;;18.2;76.6
56558;BME280;43358;50.356;12.456;2022-08-30T00:47:15;96019;;;18.2;76.5
56558;BME280;43358;50.356;12.456;2022-08-30T00:48:17;96019;;;18.2;76.2
56558;BME280;43358;50.356;12.456;2022-08-30T00:49:19;96019;;;18.2;76.2
56558;BME280;43358;50.356;12.456;2022-08-30T00:50:24;96020;;;18.2;76.6
56558;BME280;43358;50.356;12.456;2022-08-30T00:51:25;96017;;;18.2;76.6
56558;BME280;43358;50.356;12.456;2022-08-30T00:52:27;96016;;;18.2;76.6
56558;BME280;43358;50.356;12.456;2022-08-30T00:53:30;96013;;;18.2;76.3
56558;BME280;43358;50.356;12.456;2022-08-30T00:54:31;96012;;;18.2;76.1
56558;BME280;43358;50.356;12.456;2022-08-30T00:55:33;96011;;;18.2;76.1
56558;BME280;43358;50.356;12.456;2022-08-30T00:56:35;96009;;;18.2;76.5
56558;BME280;43358;50.356;12.456;2022-08-30T00:57:37;96009;;;18.2;76.6
56558;BME280;43358;50.356;12.456;2022-08-30T00:58:41;96009;;;18.2;76.9
56558;BME280;43358;50.356;12.456;2022-08-30T00:59:41;96010;;;18.2;76.8
56558;BME280;43358;50.356;12.456;2022-08-30T01:00:43;96008;;;18.2;76.8
56558;BME280;43358;50.356;12.456;2022-08-30T01:01:45;96006;;;18.2;76.6
56558;BME280;43358;50.356;12.456;2022-08-30T01:02:47;96008;;;18.2;76.7
56558;BME280;43358;50.356;12.456;2022-08-30T01:03:49;96006;;;18.2;76.5
56558;BME280;43358;50.356;12.456;2022-08-30T01:04:51;96004;;;18.2;76.3
56558;BME280;43358;50.356;12.456;2022-08-30T01:05:53;96006;;;18.2;76.6
56558;BME280;43358;50.356;12.456;2022-08-30T01:06:55;96003;;;18.2;76.6
56558;BME280;43358;50.356;12.456;2022-08-30T01:07:57;96002;;;18.2;76.7
56558;BME280;43358;50.356;12.456;2022-08-30T01:08:59;96002;;;18.2;76.4
56558;BME280;43358;50.356;12.456;2022-08-30T01:10:02;96001;;;18.2;76.4
56558;BME280;43358;50.356;12.456;2022-08-30T01:11:03;96002;;;18.2;76.4
56558;BME280;43358;50.356;12.456;2022-08-30T01:12:05;96006;;;18.2;76.2
56558;BME280;43358;50.356;12.456;2022-08-30T01:13:07;96008;;;18.2;76.4
56558;BME280;43358;50.356;12.456;2022-08-30T01:14:09;96007;;;18.2;76.2
56558;BME280;43358;50.356;12.456;2022-08-30T01:15:11;96007;;;18.2;76.6
56558;BME280;43358;50.356;12.456;2022-08-30T01:16:15;96007;;;18.2;76.7
56558;BME280;43358;50.356;12.456;2022-08-30T01:17:17;96007;;;18.2;76.2
56558;BME280;43358;50.356;12.456;2022-08-30T01:18:19;96007;;;18.2;76.1
56558;BME280;43358;50.356;12.456;2022-08-30T01:19:24;96006;;;18.2;76.3
56558;BME280;43358;50.356;12.456;2022-08-30T01:20:26;96007;;;18.2;76.2
56558;BME280;43358;50.356;12.456;2022-08-30T01:21:28;96007;;;18.2;76.4
56558;BME280;43358;50.356;12.456;2022-08-30T01:22:29;96007;;;18.2;76.2
56558;BME280;43358;50.356;12.456;2022-08-30T01:23:31;96008;;;18.2;76.2
56558;BME280;43358;50.356;12.456;2022-08-30T01:24:35;96008;;;18.1;76.3
56558;BME280;43358;50.356;12.456;2022-08-30T01:25:37;96009;;;18.1;76.3
56558;BME280;43358;50.356;12.456;2022-08-30T01:26:39;96013;;;18.1;76
56558;BME280;43358;50.356;12.456;2022-08-30T01:27:42;96013;;;18.1;76
56558;BME280;43358;50.356;12.456;2022-08-30T01:28:43;96014;;;18.1;75.9
56558;BME280;43358;50.356;12.456;2022-08-30T01:29:45;96016;;;18.1;75.9
56558;BME280;43358;50.356;12.456;2022-08-30T01:30:47;96017;;;18.1;75.8
56558;BME280;43358;50.356;12.456;2022-08-30T01:31:49;96016;;;18.1;76
56558;BME280;43358;50.356;12.456;2022-08-30T01:32:55;96018;;;18.1;76.3
56558;BME280;43358;50.356;12.456;2022-08-30T01:33:53;96013;;;18.1;76.4
56558;BME280;43358;50.356;12.456;2022-08-30T01:34:55;96014;;;18.1;76.3
56558;BME280;43358;50.356;12.456;2022-08-30T01:35:57;96012;;;18.1;76.1
56558;BME280;43358;50.356;12.456;2022-08-30T01:36:59;96013;;;18.1;75.9
56558;BME280;43358;50.356;12.456;2022-08-30T01:38:01;96012;;;18.1;75.9
56558;BME280;43358;50.356;12.456;2022-08-30T01:39:05;96009;;;18.1;76
56558;BME280;43358;50.356;12.456;2022-08-30T01:40:07;96013;;;18.1;76
56558;BME280;43358;50.356;12.456;2022-08-30T01:41:10;96011;;;18.1;75.8
56558;BME280;43358;50.356;12.456;2022-08-30T01:42:11;96014;;;18.1;75.8
56558;BME280;43358;50.356;12.456;2022-08-30T01:43:15;96013;;;18.1;75.9
56558;BME280;43358;50.356;12.456;2022-08-30T01:44:17;96013;;;18.1;76.2
56558;BME280;43358;50.356;12.456;2022-08-30T01:45:19;96012;;;18.1;76.3
56558;BME280;43358;50.356;12.456;2022-08-30T01:46:24;96015;;;18.1;76.3
56558;BME280;43358;50.356;12.456;2022-08-30T01:47:25;96016;;;18.1;76.3
56558;BME280;43358;50.356;12.456;2022-08-30T01:48:29;96014;;;18.1;76.3
56558;BME280;43358;50.356;12.456;2022-08-30T01:49:33;96017;;;18.1;76.2
56558;BME280;43358;50.356;12.456;2022-08-30T01:50:37;96017;;;18.1;76.2
56558;BME280;43358;50.356;12.456;2022-08-30T01:51:41;96017;;;18.1;76.1
56558;BME280;43358;50.356;12.456;2022-08-30T01:52:45;96017;;;18.1;76.1
56558;BME280;43358;50.356;12.456;2022-08-30T01:53:47;96016;;;18.1;76.2
56558;BME280;43358;50.356;12.456;2022-08-30T01:54:49;96016;;;18.1;76.2
56558;BME280;43358;50.356;12.456;2022-08-30T01:55:53;96015;;;18.1;76.2
56558;BME280;43358;50.356;12.456;2022-08-30T01:56:57;96013;;;18.1;75.9
56558;BME280;43358;50.356;12.456;2022-08-30T01:58:01;96012;;;18.1;75.9
56558;BME280;43358;50.356;12.456;2022-08-30T01:59:05;96013;;;18.1;76.1
56558;BME280;43358;50.356;12.456;2022-08-30T02:00:09;96010;;;18.1;76.2
56558;BME280;43358;50.356;12.456;2022-08-30T02:01:12;96011;;;18.1;76.2
56558;BME280;43358;50.356;12.456;2022-08-30T02:02:15;96012;;;18.1;76.2
56558;BME280;43358;50.356;12.456;2022-08-30T02:03:17;96011;;;18.1;76.1
56558;BME280;43358;50.356;12.456;2022-08-30T02:04:19;96012;;;18.1;76.2
56558;BME280;43358;50.356;12.456;2022-08-30T02:05:22;96011;;;18.1;76.3
56558;BME280;43358;50.356;12.456;2022-08-30T02:06:27;96011;;;18.1;76.3
56558;BME280;43358;50.356;12.456;2022-08-30T02:07:29;96012;;;18.1;76.2
56558;BME280;43358;50.356;12.456;2022-08-30T02:08:31;96012;;;18.1;76
56558;BME280;43358;50.356;12.456;2022-08-30T02:09:33;96013;;;18.1;75.9
56558;BME280;43358;50.356;12.456;2022-08-30T02:10:35;96013;;;18.1;76
56558;BME280;43358;50.356;12.456;2022-08-30T02:11:37;96016;;;18.1;76.3
56558;BME280;43358;50.356;12.456;2022-08-30T02:12:39;96017;;;18.1;76.2
56558;BME280;43358;50.356;12.456;2022-08-30T02:13:41;96015;;;18.1;76.3
56558;BME280;43358;50.356;12.456;2022-08-30T02:14:45;96012;;;18.1;76.3
56558;BME280;43358;50.356;12.456;2022-08-30T02:15:47;96011;;;18.1;76.2
56558;BME280;43358;50.356;12.456;2022-08-30T02:16:51;96008;;;18.1;76.1
56558;BME280;43358;50.356;12.456;2022-08-30T02:17:55;96006;;;18.1;76.1
56558;BME280;43358;50.356;12.456;2022-08-30T02:18:57;96006;;;18.1;76
56558;BME280;43358;50.356;12.456;2022-08-30T02:20:02;96005;;;18.1;76
56558;BME280;43358;50.356;12.456;2022-08-30T02:21:03;96003;;;18.1;76.2
56558;BME280;43358;50.356;12.456;2022-08-30T02:22:05;96003;;;18.1;76
56558;BME280;43358;50.356;12.456;2022-08-30T02:23:09;96002;;;18.1;76.3
56558;BME280;43358;50.356;12.456;2022-08-30T02:24:11;96004;;;18.1;75.7
56558;BME280;43358;50.356;12.456;2022-08-30T02:25:15;96003;;;18.1;75.6
56558;BME280;43358;50.356;12.456;2022-08-30T02:26:17;96003;;;18.1;75.5
56558;BME280;43358;50.356;12.456;2022-08-30T02:27:19;96004;;;18;75.9
56558;BME280;43358;50.356;12.456;2022-08-30T02:28:23;96000;;;18.1;75.7
56558;BME280;43358;50.356;12.456;2022-08-30T02:29:25;96002;;;18;75.8
56558;BME280;43358;50.356;12.456;2022-08-30T02:30:27;96004;;;18;75.8
56558;BME280;43358;50.356;12.456;2022-08-30T02:31:31;96002;;;18;75.9
56558;BME280;43358;50.356;12.456;2022-08-30T02:32:35;96001;;;18;76
56558;BME280;43358;50.356;12.456;2022-08-30T02:33:40;96002;;;18;75.8
56558;BME280;43358;50.356;12.456;2022-08-30T02:34:42;96002;;;18;75.6
56558;BME280;43358;50.356;12.456;2022-08-30T02:35:44;96004;;;18;75.7
56558;BME280;43358;50.356;12.456;2022-08-30T02:36:46;96001;;;18;75.7
56558;BME280;43358;50.356;12.456;2022-08-30T02:37:48;95999;;;18;75.5
56558;BME280;43358;50.356;12.456;2022-08-30T02:38:50;96000;;;18;75.8
56558;BME280;43358;50.356;12.456;2022-08-30T02:39:54;95998;;;18;75.4
56558;BME280;43358;50.356;12.456;2022-08-30T02:40:56;95995;;;18;75.7
56558;BME280;43358;50.356;12.456;2022-08-30T02:41:58;95993;;;18;75.6
56558;BME280;43358;50.356;12.456;2022-08-30T02:43:00;95992;;;18;75.6
56558;BME280;43358;50.356;12.456;2022-08-30T02:44:02;95992;;;18;75.7
56558;BME280;43358;50.356;12.456;2022-08-30T02:45:06;95992;;;18;75.9
56558;BME280;43358;50.356;12.456;2022-08-30T02:46:08;95990;;;18;75.5
56558;BME280;43358;50.356;12.456;2022-08-30T02:47:10;95993;;;18;75.5
56558;BME280;43358;50.356;12.456;2022-08-30T02:48:12;95992;;;18;75.5
56558;BME280;43358;50.356;12.456;2022-08-30T02:49:16;95991;;;18;75.5
56558;BME280;43358;50.356;12.456;2022-08-30T02:50:18;95989;;;18;75.6
56558;BME280;43358;50.356;12.456;2022-08-30T02:51:20;95989;;;18;75.3
56558;BME280;43358;50.356;12.456;2022-08-30T02:52:22;95986;;;18;75.4
56558;BME280;43358;50.356;12.456;2022-08-30T02:53:24;95987;;;18;75.3
56558;BME280;43358;50.356;12.456;2022-08-30T02:54:26;95987;;;18;75.4
56558;BME280;43358;50.356;12.456;2022-08-30T02:55:30;95982;;;18;75.5
56558;BME280;43358;50.356;12.456;2022-08-30T02:56:34;95986;;;18;75.6
56558;BME280;43358;50.356;12.456;2022-08-30T02:57:36;95986;;;18;75.3
56558;BME280;43358;50.356;12.456;2022-08-30T02:58:40;95986;;;18;75.6
56558;BME280;43358;50.356;12.456;2022-08-30T02:59:42;95983;;;18;75.5
56558;BME280;43358;50.356;12.456;2022-08-30T03:00:44;95985;;;18;75.3
56558;BME280;43358;50.356;12.456;2022-08-30T03:01:46;95987;;;18;75.2
56558;BME280;43358;50.356;12.456;2022-08-30T03:02:51;95989;;;18;75.4
56558;BME280;43358;50.356;12.456;2022-08-30T03:03:53;95989;;;18;75.5
56558;BME280;43358;50.356;12.456;2022-08-30T03:04:55;95992;;;18;75.5
56558;BME280;43358;50.356;12.456;2022-08-30T03:05:57;95991;;;18;75.6
56558;BME280;43358;50.356;12.456;2022-08-30T03:06:59;95991;;;18;75.5
56558;BME280;43358;50.356;12.456;2022-08-30T03:08:01;95990;;;17.9;75.6
56558;BME280;43358;50.356;12.456;2022-08-30T03:09:03;95990;;;18;75.6
56558;BME280;43358;50.356;12.456;2022-08-30T03:10:05;95993;;;17.9;75.6
56558;BME280;43358;50.356;12.456;2022-08-30T03:11:09;95991;;;18;75.7
56558;BME280;43358;50.356;12.456;2022-08-30T03:12:11;95991;;;18;75.6
56558;BME280;43358;50.356;12.456;2022-08-30T03:13:13;95991;;;17.9;75.6
56558;BME280;43358;50.356;12.456;2022-08-30T03:14:16;95990;;;17.9;75.5
56558;BME280;43358;50.356;12.456;2022-08-30T03:15:18;95990;;;17.9;75.6
56558;BME280;43358;50.356;12.456;2022-08-30T03:16:20;95989;;;18;75.4
56558;BME280;43358;50.356;12.456;2022-08-30T03:17:22;95989;;;17.9;75.2
56558;BME280;43358;50.356;12.456;2022-08-30T03:18:24;95990;;;18;75.2
56558;BME280;43358;50.356;12.456;2022-08-30T03:19:26;95985;;;17.9;75.7
56558;BME280;43358;50.356;12.456;2022-08-30T03:20:28;95982;;;17.9;75.2
56558;BME280;43358;50.356;12.456;2022-08-30T03:21:30;95980;;;17.9;75.2
56558;BME280;43358;50.356;12.456;2022-08-30T03:22:32;95977;;;17.9;75.1
56558;BME280;43358;50.356;12.456;2022-08-30T03:23:34;95979;;;17.9;75.4
56558;BME280;43358;50.356;12.456;2022-08-30T03:24:36;95976;;;17.9;75.6
56558;BME280;43358;50.356;12.456;2022-08-30T03:25:39;95976;;;17.9;75.5
56558;BME280;43358;50.356;12.456;2022-08-30T03:26:41;95977;;;17.9;75.3
56558;BME280;43358;50.356;12.456;2022-08-30T03:27:43;95975;;;17.9;75.4
56558;BME280;43358;50.356;12.456;2022-08-30T03:28:45;95979;;;17.9;75.4
56558;BME280;43358;50.356;12.456;2022-08-30T03:29:47;95982;;;17.9;75.4
56558;BME280;43358;50.356;12.456;2022-08-30T03:30:49;95981;;;17.9;75.5
56558;BME280;43358;50.356;12.456;2022-08-30T03:31:51;95982;;;17.9;75.4
56558;BME280;43358;50.356;12.456;2022-08-30T03:32:55;95982;;;17.9;75.3
56558;BME280;43358;50.356;12.456;2022-08-30T03:33:57;95984;;;17.9;75.2
56558;BME280;43358;50.356;12.456;2022-08-30T03:34:59;95981;;;17.9;75.2
56558;BME280;43358;50.356;12.456;2022-08-30T03:36:03;95981;;;17.9;75.3
56558;BME280;43358;50.356;12.456;2022-08-30T03:37:05;95981;;;17.9;75.3
56558;BME280;43358;50.356;12.456;2022-08-30T03:38:07;95979;;;17.9;75.2
56558;BME280;43358;50.356;12.456;2022-08-30T03:39:09;95981;;;17.9;75.3
56558;BME280;43358;50.356;12.456;2022-08-30T03:40:13;95981;;;17.9;75.3
56558;BME280;43358;50.356;12.456;2022-08-30T03:41:15;95980;;;17.9;75.1
56558;BME280;43358;50.356;12.456;2022-08-30T03:42:18;95983;;;17.9;74.9
56558;BME280;43358;50.356;12.456;2022-08-30T03:43:21;95981;;;17.9;74.9
56558;BME280;43358;50.356;12.456;2022-08-30T03:44:23;95982;;;17.9;74.9
56558;BME280;43358;50.356;12.456;2022-08-30T03:45:25;95981;;;17.9;74.8
56558;BME280;43358;50.356;12.456;2022-08-30T03:46:27;95982;;;17.9;75
56558;BME280;43358;50.356;12.456;2022-08-30T03:47:31;95981;;;17.9;75.1
56558;BME280;43358;50.356;12.456;2022-08-30T03:48:33;95984;;;17.9;75.1
56558;BME280;43358;50.356;12.456;2022-08-30T03:49:37;95983;;;17.9;75.1
56558;BME280;43358;50.356;12.456;2022-08-30T03:50:39;95986;;;17.9;75.3
56558;BME280;43358;50.356;12.456;2022-08-30T03:51:41;95984;;;17.9;75.2
56558;BME280;43358;50.356;12.456;2022-08-30T03:52:43;95987;;;17.9;75.3
56558;BME280;43358;50.356;12.456;2022-08-30T03:53:45;95987;;;17.9;75.4
56558;BME280;43358;50.356;12.456;2022-08-30T03:54:47;95985;;;17.9;75.5
56558;BME280;43358;50.356;12.456;2022-08-30T03:55:49;95988;;;17.9;75.7
56558;BME280;43358;50.356;12.456;2022-08-30T03:56:51;95986;;;17.9;75.3
56558;BME280;43358;50.356;12.456;2022-08-30T03:57:53;95986;;;17.9;75.2
56558;BME280;43358;50.356;12.456;2022-08-30T03:58:55;95985;;;17.9;75.2
56558;BME280;43358;50.356;12.456;2022-08-30T03:59:57;95984;;;17.9;75.3
56558;BME280;43358;50.356;12.456;2022-08-30T04:00:59;95985;;;17.9;75.3
56558;BME280;43358;50.356;12.456;2022-08-30T04:02:04;95989;;;17.9;75.5
56558;BME280;43358;50.356;12.456;2022-08-30T04:03:08;95988;;;17.9;75.3
56558;BME280;43358;50.356;12.456;2022-08-30T04:04:10;95986;;;17.9;75.3
56558;BME280;43358;50.356;12.456;2022-08-30T04:05:08;95988;;;17.9;75.2
56558;BME280;43358;50.356;12.456;2022-08-30T04:06:09;95988;;;17.9;75.2
56558;BME280;43358;50.356;12.456;2022-08-30T04:07:11;95991;;;17.9;75.2
56558;BME280;43358;50.356;12.456;2022-08-30T04:08:15;95994;;;17.9;75.2
56558;BME280;43358;50.356;12.456;2022-08-30T04:09:19;95997;;;17.9;75.1
56558;BME280;43358;50.356;12.456;2022-08-30T04:10:21;95998;;;17.9;75
56558;BME280;43358;50.356;12.456;2022-08-30T04:11:23;96002;;;17.9;75
56558;BME280;43358;50.356;12.456;2022-08-30T04:12:25;96002;;;17.9;75.2
56558;BME280;43358;50.356;12.456;2022-08-30T04:13:27;96004;;;17.9;75.3
56558;BME280;43358;50.356;12.456;2022-08-30T04:14:31;96003;;;17.9;75.6
56558;BME280;43358;50.356;12.456;2022-08-30T04:15:33;96003;;;17.9;75.5
56558;BME280;43358;50.356;12.456;2022-08-30T04:16:37;96005;;;17.9;75.2
56558;BME280;43358;50.356;12.456;2022-08-30T04:17:39;96006;;;17.9;75.5
56558;BME280;43358;50.356;12.456;2022-08-30T04:18:41;96006;;;17.9;75.3
56558;BME280;43358;50.356;12.456;2022-08-30T04:19:43;96007;;;17.9;75.3
56558;BME280;43358;50.356;12.456;2022-08-30T04:20:45;96007;;;17.9;75.4
56558;BME280;43358;50.356;12.456;2022-08-30T04:21:47;96009;;;17.9;75.5
56558;BME280;43358;50.356;12.456;2022-08-30T04:22:49;96010;;;17.9;75.8
56558;BME280;43358;50.356;12.456;2022-08-30T04:23:51;96010;;;17.9;75.8
56558;BME280;43358;50.356;12.456;2022-08-30T04:24:53;96013;;;17.9;75.5
56558;BME280;43358;50.356;12.456;2022-08-30T04:25:55;96013;;;17.9;75.6
56558;BME280;43358;50.356;12.456;2022-08-30T04:26:57;96012;;;17.9;75.5
56558;BME280;43358;50.356;12.456;2022-08-30T04:27:59;96011;;;17.9;75.7
56558;BME280;43358;50.356;12.456;2022-08-30T04:29:05;96012;;;17.9;75.4
56558;BME280;43358;50.356;12.456;2022-08-30T04:30:08;96012;;;17.9;75.1
56558;BME280;43358;50.356;12.456;2022-08-30T04:31:07;96013;;;17.9;75.2
56558;BME280;43358;50.356;12.456;2022-08-30T04:32:12;96013;;;17.9;74.9
56558;BME280;43358;50.356;12.456;2022-08-30T04:33:09;96015;;;17.9;75
56558;BME280;43358;50.356;12.456;2022-08-30T04:34:12;96016;;;17.9;74.9
56558;BME280;43358;50.356;12.456;2022-08-30T04:35:15;96016;;;17.9;74.9
56558;BME280;43358;50.356;12.456;2022-08-30T04:36:17;96017;;;17.9;75.3
56558;BME280;43358;50.356;12.456;2022-08-30T04:37:22;96019;;;17.9;75.4
56558;BME280;43358;50.356;12.456;2022-08-30T04:38:23;96017;;;17.9;75.4
56558;BME280;43358;50.356;12.456;2022-08-30T04:39:25;96019;;;17.9;75.4
56558;BME280;43358;50.356;12.456;2022-08-30T04:40:27;96019;;;17.9;75.3
56558;BME280;43358;50.356;12.456;2022-08-30T04:41:31;96019;;;17.9;75.2
56558;BME280;43358;50.356;12.456;2022-08-30T04:42:34;96019;;;17.9;75.3
56558;BME280;43358;50.356;12.456;2022-08-30T04:43:37;96019;;;17.9;75.4
56558;BME280;43358;50.356;12.456;2022-08-30T04:44:39;96019;;;17.9;75.3
56558;BME280;43358;50.356;12.456;2022-08-30T04:45:41;96022;;;17.9;75.4
56558;BME280;43358;50.356;12.456;2022-08-30T04:46:43;96021;;;17.9;75.2
56558;BME280;43358;50.356;12.456;2022-08-30T04:47:45;96022;;;17.9;75.5
56558;BME280;43358;50.356;12.456;2022-08-30T04:48:49;96025;;;17.9;75.3
56558;BME280;43358;50.356;12.456;2022-08-30T04:49:53;96025;;;17.9;75.3
56558;BME280;43358;50.356;12.456;2022-08-30T04:50:57;96027;;;17.9;75.3
56558;BME280;43358;50.356;12.456;2022-08-30T04:52:01;96027;;;17.9;75.3
56558;BME280;43358;50.356;12.456;2022-08-30T04:53:05;96023;;;17.9;74.9
56558;BME280;43358;50.356;12.456;2022-08-30T04:54:09;96027;;;17.8;74.9
56558;BME280;43358;50.356;12.456;2022-08-30T04:55:11;96030;;;17.8;74.8
56558;BME280;43358;50.356;12.456;2022-08-30T04:56:16;96029;;;17.9;74.8
56558;BME280;43358;50.356;12.456;2022-08-30T04:57:17;96028;;;17.8;75.4
56558;BME280;43358;50.356;12.456;2022-08-30T04:58:20;96031;;;17.8;75.2
56558;BME280;43358;50.356;12.456;2022-08-30T04:59:22;96034;;;17.8;75.1
56558;BME280;43358;50.356;12.456;2022-08-30T05:00:25;96032;;;17.8;75.3
56558;BME280;43358;50.356;12.456;2022-08-30T05:01:26;96033;;;17.8;75.3
56558;BME280;43358;50.356;12.456;2022-08-30T05:02:27;96036;;;17.8;75.4
56558;BME280;43358;50.356;12.456;2022-08-30T05:03:29;96036;;;17.8;75.2
56558;BME280;43358;50.356;12.456;2022-08-30T05:04:31;96039;;;17.8;75.1
56558;BME280;43358;50.356;12.456;2022-08-30T05:05:33;96041;;;17.8;75
56558;BME280;43358;50.356;12.456;2022-08-30T05:06:37;96039;;;17.8;74.9
56558;BME280;43358;50.356;12.456;2022-08-30T05:07:39;96041;;;17.8;75.1
56558;BME280;43358;50.356;12.456;2022-08-30T05:08:41;96046;;;17.8;75.2
56558;BME280;43358;50.356;12.456;2022-08-30T05:09:43;96045;;;17.8;75.2
56558;BME280;43358;50.356;12.456;2022-08-30T05:10:46;96047;;;17.8;75.3
56558;BME280;43358;50.356;12.456;2022-08-30T05:11:47;96044;;;17.8;75.4
56558;BME280;43358;50.356;12.456;2022-08-30T05:12:49;96046;;;17.8;75
56558;BME280;43358;50.356;12.456;2022-08-30T05:13:51;96047;;;17.8;75.3
56558;BME280;43358;50.356;12.456;2022-08-30T05:14:53;96048;;;17.8;75.1
56558;BME280;43358;50.356;12.456;2022-08-30T05:15:55;96052;;;17.8;75.4
56558;BME280;43358;50.356;12.456;2022-08-30T05:16:59;96051;;;17.8;75.2
56558;BME280;43358;50.356;12.456;2022-08-30T05:18:04;96051;;;17.8;75.5
56558;BME280;43358;50.356;12.456;2022-08-30T05:19:12;96052;;;17.8;75.5
56558;BME280;43358;50.356;12.456;2022-08-30T05:20:11;96048;;;17.8;75.3
56558;BME280;43358;50.356;12.456;2022-08-30T05:21:16;96052;;;17.8;75.1
56558;BME280;43358;50.356;12.456;2022-08-30T05:22:24;96049;;;17.8;75.2
56558;BME280;43358;50.356;12.456;2022-08-30T05:23:23;96047;;;17.8;75
56558;BME280;43358;50.356;12.456;2022-08-30T05:24:28;96049;;;17.8;74.9
56558;BME280;43358;50.356;12.456;2022-08-30T05:25:32;96047;;;17.8;74.9
56558;BME280;43358;50.356;12.456;2022-08-30T05:26:33;96049;;;17.8;74.6
56558;BME280;43358;50.356;12.456;2022-08-30T05:27:37;96049;;;17.8;74.8
56558;BME280;43358;50.356;12.456;2022-08-30T05:28:39;96052;;;17.8;74.9
56558;BME280;43358;50.356;12.456;2022-08-30T05:29:43;96051;;;17.8;74.9
56558;BME280;43358;50.356;12.456;2022-08-30T05:30:47;96052;;;17.8;74.9
56558;BME280;43358;50.356;12.456;2022-08-30T05:31:56;96051;;;17.8;75
56558;BME280;43358;50.356;12.456;2022-08-30T05:32:55;96048;;;17.8;75.1
56558;BME280;43358;50.356;12.456;2022-08-30T05:33:59;96047;;;17.8;74.9
56558;BME280;43358;50.356;12.456;2022-08-30T05:35:06;96045;;;17.8;74.9
56558;BME280;43358;50.356;12.456;2022-08-30T05:36:09;96049;;;17.8;75.1
56558;BME280;43358;50.356;12.456;2022-08-30T05:37:10;96047;;;17.8;75.1
56558;BME280;43358;50.356;12.456;2022-08-30T05:38:09;96048;;;17.8;74.4
56558;BME280;43358;50.356;12.456;2022-08-30T05:39:14;96048;;;17.8;75
56558;BME280;43358;50.356;12.456;2022-08-30T05:40:11;96047;;;17.8;75.2
56558;BME280;43358;50.356;12.456;2022-08-30T05:41:19;96048;;;17.8;75.4
56558;BME280;43358;50.356;12.456;2022-08-30T05:42:15;96047;;;17.8;75.6
56558;BME280;43358;50.356;12.456;2022-08-30T05:43:19;96042;;;17.8;75.2
56558;BME280;43358;50.356;12.456;2022-08-30T05:44:21;96046;;;17.8;75.2
56558;BME280;43358;50.356;12.456;2022-08-30T05:45:28;96044;;;17.8;75.5
56558;BME280;43358;50.356;12.456;2022-08-30T05:46:30;96045;;;17.8;75.5
56558;BME280;43358;50.356;12.456;2022-08-30T05:47:32;96041;;;17.8;75.7
56558;BME280;43358;50.356;12.456;2022-08-30T05:48:34;96041;;;17.8;75.3
56558;BME280;43358;50.356;12.456;2022-08-30T05:49:31;96042;;;17.8;75.5
56558;BME280;43358;50.356;12.456;2022-08-30T05:50:38;96043;;;17.8;75.7
56558;BME280;43358;50.356;12.456;2022-08-30T05:51:37;96042;;;17.8;75.4